PWSweather.com
Personal Weather Stations
Station Observations
EA1AHA
AvilesES 33403

AvilesES 33403

Lat: 43.5457566, Lon: -5.9063395

Elevation: 213

Station Type: WATSON W-8681

Latest ConditionsUpdated 8:43:00 AM GMT+01:01 Thursday, Dec 12, 2019
Currently Today's Max Today's Min Today's Average
Temperature 54.7°F12.6°C 55.8°F13.2°C 53.8°F12.1°C 54.9°F12.7°C
Dew Point 44.3°F6.8°C 45.7°F7.6°C 41.0°F5.0°C 43.1°F6.2°C
Winds 19.0 mph WSW30.6 kmh WSW 19.0 mph -30.6 kmh - - 11.6 mph 18.7 kmh
Wind Gusts 21.3 mph34.3 kmh 21.3 mph34.3 kmh - -
Humidity 68% 73% 58% 65%
Pressure 30.01 in1016.3 mb 30.23 in1023.7 mb 30.00 in1015.9 mb -
Precipitation - 0.04 in1.0 mm - -
Hour Temp Dew Point Humidity Winds Wind Gusts Pressure Precip Precip Rate Daily Precip Total
08:43 AM 54.7°F12.6°C 44.3°F6.8°C 68% 19.0 mph WSW30.6 kmh WSW 21.3 mph34.3 kmh 30.01 in1016.3 mb 0.01 in0.3 mm 0.00 in0.0 mm 0.04 in1.0 mm
08:38 AM 54.5°F12.5°C 44.5°F6.9°C 69% 16.8 mph WSW27.0 kmh WSW 19.7 mph31.7 kmh 30.01 in1016.3 mb 0.01 in0.3 mm 0.00 in0.0 mm 0.04 in1.0 mm
08:33 AM 54.7°F12.6°C 44.7°F7.1°C 69% 15.2 mph W24.5 kmh W 17.4 mph28.0 kmh 30.00 in1015.9 mb 0.02 in0.5 mm 0.00 in0.0 mm 0.04 in1.0 mm
08:28 AM 54.5°F12.5°C 44.9°F7.2°C 70% 9.2 mph W14.8 kmh W 11.4 mph18.3 kmh 30.00 in1015.9 mb 0.02 in0.5 mm 0.12 in3.0 mm 0.04 in1.0 mm
08:23 AM 54.5°F12.5°C 44.9°F7.2°C 70% 15.9 mph SW25.6 kmh SW 17.4 mph28.0 kmh 30.00 in1015.9 mb 0.01 in0.3 mm 0.00 in0.0 mm 0.02 in0.5 mm
08:18 AM 54.3°F12.4°C 45.5°F7.5°C 72% 15.2 mph WSW24.5 kmh WSW 16.8 mph27.0 kmh 30.01 in1016.3 mb 0.01 in0.3 mm 0.00 in0.0 mm 0.02 in0.5 mm
08:13 AM 54.1°F12.3°C 45.3°F7.4°C 72% 13.0 mph SW20.9 kmh SW 15.9 mph25.6 kmh 30.01 in1016.3 mb 0.01 in0.3 mm 0.00 in0.0 mm 0.02 in0.5 mm
08:08 AM 54.1°F12.3°C 45.7°F7.6°C 73% 16.8 mph W27.0 kmh W 19.0 mph30.6 kmh 30.02 in1016.6 mb 0.01 in0.3 mm 0.00 in0.0 mm 0.02 in0.5 mm
08:03 AM 54.1°F12.3°C 45.7°F7.6°C 73% 9.8 mph SW15.8 kmh SW 12.1 mph19.5 kmh 30.01 in1016.3 mb 0.01 in0.3 mm 0.00 in0.0 mm 0.02 in0.5 mm
07:58 AM 54.1°F12.3°C 45.7°F7.6°C 73% 14.5 mph WSW23.3 kmh WSW 17.4 mph28.0 kmh 30.02 in1016.6 mb 0.01 in0.3 mm 0.00 in0.0 mm 0.02 in0.5 mm
07:53 AM 54.1°F12.3°C 45.7°F7.6°C 73% 13.0 mph SW20.9 kmh SW 15.2 mph24.5 kmh 30.02 in1016.6 mb 0.01 in0.3 mm 0.00 in0.0 mm 0.02 in0.5 mm
07:48 AM 54.1°F12.3°C 45.7°F7.6°C 73% 10.7 mph SW17.2 kmh SW 13.0 mph20.9 kmh 30.02 in1016.6 mb 0.01 in0.3 mm 0.00 in0.0 mm 0.02 in0.5 mm
07:43 AM 54.0°F12.2°C 45.5°F7.5°C 73% 8.3 mph W13.4 kmh W 10.7 mph17.2 kmh 30.02 in1016.6 mb 0.01 in0.3 mm 0.00 in0.0 mm 0.02 in0.5 mm
07:38 AM 53.8°F12.1°C 45.3°F7.4°C 73% 8.3 mph WNW13.4 kmh WNW 9.8 mph15.8 kmh 30.02 in1016.6 mb 0.01 in0.3 mm 0.12 in3.0 mm 0.02 in0.5 mm
07:33 AM 53.8°F12.1°C 45.3°F7.4°C 73% 7.6 mph SW12.2 kmh SW 9.8 mph15.8 kmh 30.02 in1016.6 mb 0.00 in0.0 mm 0.00 in0.0 mm 0.01 in0.3 mm
07:28 AM 53.8°F12.1°C 45.3°F7.4°C 73% 12.1 mph SW19.5 kmh SW 14.5 mph23.3 kmh 30.02 in1016.6 mb 0.00 in0.0 mm 0.00 in0.0 mm 0.01 in0.3 mm
07:23 AM 53.8°F12.1°C 45.3°F7.4°C 73% 10.7 mph WSW17.2 kmh WSW 13.0 mph20.9 kmh 30.03 in1016.9 mb 0.00 in0.0 mm 0.00 in0.0 mm 0.01 in0.3 mm
07:18 AM 53.8°F12.1°C 45.3°F7.4°C 73% 9.8 mph WSW15.8 kmh WSW 12.1 mph19.5 kmh 30.02 in1016.6 mb 0.00 in0.0 mm 0.00 in0.0 mm 0.01 in0.3 mm
07:13 AM 54.0°F12.2°C 45.5°F7.5°C 73% 8.3 mph W13.4 kmh W 9.8 mph15.8 kmh 30.03 in1016.9 mb 0.00 in0.0 mm 0.00 in0.0 mm 0.01 in0.3 mm
07:08 AM 54.1°F12.3°C 45.3°F7.4°C 72% 10.7 mph W17.2 kmh W 12.1 mph19.5 kmh 30.04 in1017.3 mb 0.00 in0.0 mm 0.00 in0.0 mm 0.01 in0.3 mm
07:03 AM 54.5°F12.5°C 44.5°F6.9°C 69% 10.7 mph SW17.2 kmh SW 13.6 mph21.9 kmh 30.04 in1017.3 mb 0.00 in0.0 mm 0.00 in0.0 mm 0.01 in0.3 mm
06:58 AM 54.7°F12.6°C 44.7°F7.1°C 69% 9.8 mph SW15.8 kmh SW 11.4 mph18.3 kmh 30.03 in1016.9 mb 0.00 in0.0 mm 0.00 in0.0 mm 0.01 in0.3 mm
06:53 AM 54.7°F12.6°C 44.3°F6.8°C 68% 9.8 mph W15.8 kmh W 11.4 mph18.3 kmh 30.04 in1017.3 mb 0.00 in0.0 mm 0.00 in0.0 mm 0.01 in0.3 mm
06:48 AM 54.7°F12.6°C 44.3°F6.8°C 68% 11.4 mph SW18.3 kmh SW 13.6 mph21.9 kmh 30.03 in1016.9 mb 0.00 in0.0 mm 0.00 in0.0 mm 0.01 in0.3 mm
06:43 AM 54.7°F12.6°C 43.9°F6.6°C 67% 12.1 mph W19.5 kmh W 16.8 mph27.0 kmh 30.04 in1017.3 mb 0.00 in0.0 mm 0.00 in0.0 mm 0.01 in0.3 mm
06:38 AM 54.9°F12.7°C 43.7°F6.5°C 66% 13.6 mph W21.9 kmh W 15.9 mph25.6 kmh 30.03 in1016.9 mb 0.00 in0.0 mm 0.00 in0.0 mm 0.01 in0.3 mm
06:33 AM 54.9°F12.7°C 43.7°F6.5°C 66% 10.7 mph W17.2 kmh W 12.1 mph19.5 kmh 30.04 in1017.3 mb 0.00 in0.0 mm 0.00 in0.0 mm 0.01 in0.3 mm
06:28 AM 55.0°F12.8°C 43.5°F6.4°C 65% 13.0 mph WSW20.9 kmh WSW 15.2 mph24.5 kmh 30.05 in1017.6 mb 0.01 in0.3 mm 0.00 in0.0 mm 0.01 in0.3 mm
06:23 AM 55.2°F12.9°C 43.3°F6.3°C 64% 13.6 mph W21.9 kmh W 15.9 mph25.6 kmh 30.04 in1017.3 mb 0.01 in0.3 mm 0.00 in0.0 mm 0.01 in0.3 mm
06:18 AM 55.0°F12.8°C 43.5°F6.4°C 65% 7.6 mph SW12.2 kmh SW 10.7 mph17.2 kmh 30.04 in1017.3 mb 0.01 in0.3 mm 0.00 in0.0 mm 0.01 in0.3 mm
06:13 AM 55.0°F12.8°C 43.5°F6.4°C 65% 11.4 mph WSW18.3 kmh WSW 12.1 mph19.5 kmh 30.05 in1017.6 mb 0.01 in0.3 mm 0.00 in0.0 mm 0.01 in0.3 mm
06:08 AM 55.0°F12.8°C 43.5°F6.4°C 65% 6.9 mph WSW11.1 kmh WSW 7.6 mph12.2 kmh 30.05 in1017.6 mb 0.01 in0.3 mm 0.00 in0.0 mm 0.01 in0.3 mm
06:03 AM 55.2°F12.9°C 43.7°F6.5°C 65% 9.8 mph SW15.8 kmh SW 11.4 mph18.3 kmh 30.06 in1017.9 mb 0.01 in0.3 mm 0.00 in0.0 mm 0.01 in0.3 mm
05:58 AM 55.0°F12.8°C 43.5°F6.4°C 65% 15.2 mph SW24.5 kmh SW 17.4 mph28.0 kmh 30.05 in1017.6 mb 0.01 in0.3 mm 0.00 in0.0 mm 0.01 in0.3 mm
05:53 AM 55.0°F12.8°C 43.5°F6.4°C 65% 13.0 mph SW20.9 kmh SW 14.5 mph23.3 kmh 30.06 in1017.9 mb 0.01 in0.3 mm 0.00 in0.0 mm 0.01 in0.3 mm
05:48 AM 55.0°F12.8°C 43.5°F6.4°C 65% 16.8 mph SW27.0 kmh SW 18.3 mph29.5 kmh 30.06 in1017.9 mb 0.01 in0.3 mm 0.00 in0.0 mm 0.01 in0.3 mm
05:43 AM 55.0°F12.8°C 43.5°F6.4°C 65% 13.0 mph S20.9 kmh S 15.2 mph24.5 kmh 30.06 in1017.9 mb 0.01 in0.3 mm 0.00 in0.0 mm 0.01 in0.3 mm
05:38 AM 55.0°F12.8°C 43.1°F6.2°C 64% 10.7 mph WSW17.2 kmh WSW 13.0 mph20.9 kmh 30.07 in1018.3 mb 0.01 in0.3 mm 0.00 in0.0 mm 0.01 in0.3 mm
05:33 AM 54.9°F12.7°C 42.9°F6.1°C 64% 9.8 mph W15.8 kmh W 11.4 mph18.3 kmh 30.07 in1018.3 mb 0.01 in0.3 mm 0.12 in3.0 mm 0.01 in0.3 mm
05:28 AM 55.2°F12.9°C 42.8°F6.0°C 63% 10.7 mph W17.2 kmh W 12.1 mph19.5 kmh 30.08 in1018.6 mb 0.00 in0.0 mm 0.00 in0.0 mm 0.00 in0.0 mm
05:23 AM 55.4°F13.0°C 42.6°F5.9°C 62% 11.4 mph W18.3 kmh W 13.6 mph21.9 kmh 30.07 in1018.3 mb 0.00 in0.0 mm 0.00 in0.0 mm 0.00 in0.0 mm
05:18 AM 55.4°F13.0°C 42.6°F5.9°C 62% 9.8 mph SW15.8 kmh SW 10.7 mph17.2 kmh 30.07 in1018.3 mb 0.00 in0.0 mm 0.00 in0.0 mm 0.00 in0.0 mm
05:13 AM 55.6°F13.1°C 42.8°F6.0°C 62% 14.5 mph SW23.3 kmh SW 15.9 mph25.6 kmh 30.08 in1018.6 mb 0.00 in0.0 mm 0.00 in0.0 mm 0.00 in0.0 mm
05:08 AM 55.8°F13.2°C 42.5°F5.8°C 61% 13.6 mph W21.9 kmh W 15.2 mph24.5 kmh 30.08 in1018.6 mb 0.00 in0.0 mm 0.00 in0.0 mm 0.00 in0.0 mm
05:03 AM 55.8°F13.2°C 42.5°F5.8°C 61% 12.1 mph W19.5 kmh W 13.6 mph21.9 kmh 30.08 in1018.6 mb 0.00 in0.0 mm 0.00 in0.0 mm 0.00 in0.0 mm
04:58 AM 55.8°F13.2°C 42.5°F5.8°C 61% 9.2 mph SW14.8 kmh SW 10.7 mph17.2 kmh 30.09 in1019.0 mb 0.00 in0.0 mm 0.00 in0.0 mm 0.00 in0.0 mm
04:53 AM 55.8°F13.2°C 42.5°F5.8°C 61% 13.6 mph W21.9 kmh W 18.3 mph29.5 kmh 30.09 in1019.0 mb 0.00 in0.0 mm 0.00 in0.0 mm 0.00 in0.0 mm
04:48 AM 55.8°F13.2°C 42.5°F5.8°C 61% 18.3 mph W29.5 kmh W 21.3 mph34.3 kmh 30.09 in1019.0 mb 0.00 in0.0 mm 0.00 in0.0 mm 0.00 in0.0 mm
04:43 AM 55.8°F13.2°C 42.5°F5.8°C 61% 11.4 mph NW18.3 kmh NW 15.2 mph24.5 kmh 30.09 in1019.0 mb 0.00 in0.0 mm 0.00 in0.0 mm 0.00 in0.0 mm
04:38 AM 55.8°F13.2°C 42.1°F5.6°C 60% 13.6 mph W21.9 kmh W 15.2 mph24.5 kmh 30.10 in1019.3 mb 0.00 in0.0 mm 0.00 in0.0 mm 0.00 in0.0 mm
04:33 AM 55.8°F13.2°C 42.5°F5.8°C 61% 11.4 mph NW18.3 kmh NW 14.5 mph23.3 kmh 30.09 in1019.0 mb 0.00 in0.0 mm 0.00 in0.0 mm 0.00 in0.0 mm
04:28 AM 55.6°F13.1°C 42.3°F5.7°C 61% 18.3 mph SW29.5 kmh SW 20.6 mph33.2 kmh 30.10 in1019.3 mb 0.00 in0.0 mm 0.00 in0.0 mm 0.00 in0.0 mm
04:23 AM 55.4°F13.0°C 42.2°F5.7°C 61% 10.7 mph SW17.2 kmh SW 12.1 mph19.5 kmh 30.11 in1019.6 mb 0.00 in0.0 mm 0.00 in0.0 mm 0.00 in0.0 mm
04:18 AM 55.4°F13.0°C 42.2°F5.7°C 61% 12.1 mph SW19.5 kmh SW 14.5 mph23.3 kmh 30.11 in1019.6 mb 0.00 in0.0 mm 0.00 in0.0 mm 0.00 in0.0 mm
04:13 AM 55.4°F13.0°C 42.2°F5.7°C 61% 18.3 mph W29.5 kmh W 20.6 mph33.2 kmh 30.11 in1019.6 mb 0.00 in0.0 mm 0.00 in0.0 mm 0.00 in0.0 mm
04:08 AM 55.2°F12.9°C 42.4°F5.8°C 62% 16.8 mph WSW27.0 kmh WSW 18.3 mph29.5 kmh 30.11 in1019.6 mb 0.00 in0.0 mm 0.00 in0.0 mm 0.00 in0.0 mm
04:03 AM 55.0°F12.8°C 42.3°F5.7°C 62% 9.8 mph W15.8 kmh W 11.4 mph18.3 kmh 30.12 in1020.0 mb 0.00 in0.0 mm 0.00 in0.0 mm 0.00 in0.0 mm
03:58 AM 55.0°F12.8°C 42.3°F5.7°C 62% 11.4 mph SW18.3 kmh SW 13.0 mph20.9 kmh 30.11 in1019.6 mb 0.00 in0.0 mm 0.00 in0.0 mm 0.00 in0.0 mm
03:53 AM 55.0°F12.8°C 42.3°F5.7°C 62% 9.8 mph NW15.8 kmh NW 12.1 mph19.5 kmh 30.12 in1020.0 mb 0.00 in0.0 mm 0.00 in0.0 mm 0.00 in0.0 mm
03:48 AM 54.7°F12.6°C 42.3°F5.7°C 63% 9.8 mph SW15.8 kmh SW 10.7 mph17.2 kmh 30.13 in1020.3 mb 0.00 in0.0 mm 0.00 in0.0 mm 0.00 in0.0 mm
03:43 AM 54.7°F12.6°C 42.3°F5.7°C 63% 11.4 mph W18.3 kmh W 13.0 mph20.9 kmh 30.12 in1020.0 mb 0.00 in0.0 mm 0.00 in0.0 mm 0.00 in0.0 mm
03:38 AM 54.9°F12.7°C 42.1°F5.6°C 62% 9.2 mph SW14.8 kmh SW 11.4 mph18.3 kmh 30.13 in1020.3 mb 0.00 in0.0 mm 0.00 in0.0 mm 0.00 in0.0 mm
03:33 AM 55.0°F12.8°C 42.3°F5.7°C 62% 12.1 mph SW19.5 kmh SW 14.5 mph23.3 kmh 30.13 in1020.3 mb 0.00 in0.0 mm 0.00 in0.0 mm 0.00 in0.0 mm
03:28 AM 55.0°F12.8°C 42.3°F5.7°C 62% 13.6 mph W21.9 kmh W 16.8 mph27.0 kmh 30.13 in1020.3 mb 0.00 in0.0 mm 0.00 in0.0 mm 0.00 in0.0 mm
03:23 AM 54.9°F12.7°C 42.5°F5.8°C 63% 16.8 mph W27.0 kmh W 21.3 mph34.3 kmh 30.13 in1020.3 mb 0.00 in0.0 mm 0.00 in0.0 mm 0.00 in0.0 mm
03:18 AM 54.5°F12.5°C 42.6°F5.9°C 64% 13.6 mph SW21.9 kmh SW 15.2 mph24.5 kmh 30.14 in1020.7 mb 0.00 in0.0 mm 0.00 in0.0 mm 0.00 in0.0 mm
03:13 AM 54.1°F12.3°C 44.6°F7.0°C 70% 6.9 mph SW11.1 kmh SW 9.2 mph14.8 kmh 30.15 in1021.0 mb 0.00 in0.0 mm 0.00 in0.0 mm 0.00 in0.0 mm
03:08 AM 54.1°F12.3°C 44.6°F7.0°C 70% 3.8 mph SW6.1 kmh SW 4.5 mph7.2 kmh 30.15 in1021.0 mb 0.00 in0.0 mm 0.00 in0.0 mm 0.00 in0.0 mm
03:03 AM 54.1°F12.3°C 44.6°F7.0°C 70% 13.6 mph SW21.9 kmh SW 15.2 mph24.5 kmh 30.14 in1020.7 mb 0.00 in0.0 mm 0.00 in0.0 mm 0.00 in0.0 mm
02:58 AM 54.1°F12.3°C 44.6°F7.0°C 70% 4.5 mph SW7.2 kmh SW 6.0 mph9.7 kmh 30.15 in1021.0 mb 0.00 in0.0 mm 0.00 in0.0 mm 0.00 in0.0 mm
02:52 AM 54.5°F12.5°C 42.6°F5.9°C 64% 6.9 mph SW11.1 kmh SW 9.2 mph14.8 kmh 30.15 in1021.0 mb 0.00 in0.0 mm 0.00 in0.0 mm 0.00 in0.0 mm
02:47 AM 54.5°F12.5°C 42.6°F5.9°C 64% 12.1 mph SW19.5 kmh SW 13.6 mph21.9 kmh 30.16 in1021.3 mb 0.00 in0.0 mm 0.00 in0.0 mm 0.00 in0.0 mm
02:43 AM 54.7°F12.6°C 42.3°F5.7°C 63% 13.0 mph WSW20.9 kmh WSW 13.6 mph21.9 kmh 30.15 in1021.0 mb 0.00 in0.0 mm 0.00 in0.0 mm 0.00 in0.0 mm
02:38 AM 54.9°F12.7°C 42.5°F5.8°C 63% 13.0 mph W20.9 kmh W 14.5 mph23.3 kmh 30.16 in1021.3 mb 0.00 in0.0 mm 0.00 in0.0 mm 0.00 in0.0 mm
02:33 AM 54.9°F12.7°C 42.5°F5.8°C 63% 19.0 mph W30.6 kmh W 19.7 mph31.7 kmh 30.16 in1021.3 mb 0.00 in0.0 mm 0.00 in0.0 mm 0.00 in0.0 mm
02:28 AM 54.7°F12.6°C 42.3°F5.7°C 63% 9.8 mph W15.8 kmh W 13.6 mph21.9 kmh 30.17 in1021.7 mb 0.00 in0.0 mm 0.00 in0.0 mm 0.00 in0.0 mm
02:23 AM 54.9°F12.7°C 42.5°F5.8°C 63% 9.2 mph NW14.8 kmh NW 10.7 mph17.2 kmh 30.17 in1021.7 mb 0.00 in0.0 mm 0.00 in0.0 mm 0.00 in0.0 mm
02:18 AM 54.9°F12.7°C 42.5°F5.8°C 63% 10.7 mph W17.2 kmh W 12.1 mph19.5 kmh 30.18 in1022.0 mb 0.00 in0.0 mm 0.00 in0.0 mm 0.00 in0.0 mm
02:13 AM 54.9°F12.7°C 42.5°F5.8°C 63% 13.6 mph SW21.9 kmh SW 15.2 mph24.5 kmh 30.17 in1021.7 mb 0.00 in0.0 mm 0.00 in0.0 mm 0.00 in0.0 mm
02:08 AM 55.0°F12.8°C 42.3°F5.7°C 62% 12.1 mph W19.5 kmh W 13.6 mph21.9 kmh 30.17 in1021.7 mb 0.00 in0.0 mm 0.00 in0.0 mm 0.00 in0.0 mm
02:03 AM 55.2°F12.9°C 42.0°F5.6°C 61% 9.8 mph WSW15.8 kmh WSW 12.1 mph19.5 kmh 30.18 in1022.0 mb 0.00 in0.0 mm 0.00 in0.0 mm 0.00 in0.0 mm
01:58 AM 55.2°F12.9°C 42.0°F5.6°C 61% 11.4 mph SW18.3 kmh SW 14.5 mph23.3 kmh 30.17 in1021.7 mb 0.00 in0.0 mm 0.00 in0.0 mm 0.00 in0.0 mm
01:53 AM 55.2°F12.9°C 42.0°F5.6°C 61% 12.1 mph W19.5 kmh W 14.5 mph23.3 kmh 30.18 in1022.0 mb 0.00 in0.0 mm 0.00 in0.0 mm 0.00 in0.0 mm
01:48 AM 54.9°F12.7°C 41.7°F5.4°C 61% 9.8 mph SW15.8 kmh SW 12.1 mph19.5 kmh 30.18 in1022.0 mb 0.00 in0.0 mm 0.00 in0.0 mm 0.00 in0.0 mm
01:43 AM 54.9°F12.7°C 41.7°F5.4°C 61% 8.3 mph W13.4 kmh W 9.8 mph15.8 kmh 30.19 in1022.4 mb 0.00 in0.0 mm 0.00 in0.0 mm 0.00 in0.0 mm
01:38 AM 54.9°F12.7°C 41.7°F5.4°C 61% 11.4 mph SW18.3 kmh SW 13.0 mph20.9 kmh 30.19 in1022.4 mb 0.00 in0.0 mm 0.00 in0.0 mm 0.00 in0.0 mm
01:33 AM 54.5°F12.5°C 41.3°F5.2°C 61% 9.8 mph WSW15.8 kmh WSW 11.4 mph18.3 kmh 30.19 in1022.4 mb 0.00 in0.0 mm 0.00 in0.0 mm 0.00 in0.0 mm
01:28 AM 54.5°F12.5°C 41.3°F5.2°C 61% 10.7 mph WSW17.2 kmh WSW 13.0 mph20.9 kmh 30.19 in1022.4 mb 0.00 in0.0 mm 0.00 in0.0 mm 0.00 in0.0 mm
01:23 AM 54.5°F12.5°C 41.3°F5.2°C 61% 6.0 mph SW9.7 kmh SW 6.9 mph11.1 kmh 30.20 in1022.7 mb 0.00 in0.0 mm 0.00 in0.0 mm 0.00 in0.0 mm
01:18 AM 54.9°F12.7°C 41.2°F5.1°C 60% 5.4 mph S8.7 kmh S 6.9 mph11.1 kmh 30.20 in1022.7 mb 0.00 in0.0 mm 0.00 in0.0 mm 0.00 in0.0 mm
01:13 AM 55.2°F12.9°C 41.6°F5.3°C 60% 3.1 mph SW5.0 kmh SW 4.5 mph7.2 kmh 30.20 in1022.7 mb 0.00 in0.0 mm 0.00 in0.0 mm 0.00 in0.0 mm
01:08 AM 55.4°F13.0°C 41.3°F5.2°C 59% 9.2 mph SW14.8 kmh SW 9.8 mph15.8 kmh 30.20 in1022.7 mb 0.00 in0.0 mm 0.00 in0.0 mm 0.00 in0.0 mm
01:03 AM 55.6°F13.1°C 41.0°F5.0°C 58% 9.8 mph SW15.8 kmh SW 13.0 mph20.9 kmh 30.20 in1022.7 mb 0.00 in0.0 mm 0.00 in0.0 mm 0.00 in0.0 mm
12:58 AM 55.6°F13.1°C 41.0°F5.0°C 58% 9.8 mph W15.8 kmh W 11.4 mph18.3 kmh 30.21 in1023.0 mb 0.00 in0.0 mm 0.00 in0.0 mm 0.00 in0.0 mm
12:53 AM 55.6°F13.1°C 41.0°F5.0°C 58% 11.4 mph WSW18.3 kmh WSW 14.5 mph23.3 kmh 30.21 in1023.0 mb 0.00 in0.0 mm 0.00 in0.0 mm 0.00 in0.0 mm
12:48 AM 55.6°F13.1°C 41.5°F5.3°C 59% 13.0 mph W20.9 kmh W 15.2 mph24.5 kmh 30.21 in1023.0 mb 0.00 in0.0 mm 0.00 in0.0 mm 0.00 in0.0 mm
12:43 AM 55.6°F13.1°C 41.9°F5.5°C 60% 13.0 mph W20.9 kmh W 15.2 mph24.5 kmh 30.21 in1023.0 mb 0.00 in0.0 mm 0.00 in0.0 mm 0.00 in0.0 mm
12:38 AM 55.4°F13.0°C 41.7°F5.4°C 60% 15.9 mph W25.6 kmh W 18.3 mph29.5 kmh 30.21 in1023.0 mb 0.00 in0.0 mm 0.00 in0.0 mm 0.00 in0.0 mm
12:33 AM 55.4°F13.0°C 41.7°F5.4°C 60% 12.1 mph W19.5 kmh W 13.6 mph21.9 kmh 30.22 in1023.4 mb 0.00 in0.0 mm 0.00 in0.0 mm 0.00 in0.0 mm
12:28 AM 55.4°F13.0°C 41.7°F5.4°C 60% 9.8 mph SW15.8 kmh SW 12.1 mph19.5 kmh 30.21 in1023.0 mb 0.00 in0.0 mm 0.00 in0.0 mm 0.00 in0.0 mm
12:23 AM 55.2°F12.9°C 41.6°F5.3°C 60% 13.6 mph WSW21.9 kmh WSW 16.8 mph27.0 kmh 30.22 in1023.4 mb 0.00 in0.0 mm 0.00 in0.0 mm 0.00 in0.0 mm
12:18 AM 55.0°F12.8°C 41.8°F5.4°C 61% 13.6 mph W21.9 kmh W 15.9 mph25.6 kmh 30.21 in1023.0 mb 0.00 in0.0 mm 0.00 in0.0 mm 0.00 in0.0 mm
12:13 AM 54.9°F12.7°C 41.7°F5.4°C 61% 12.1 mph W19.5 kmh W 15.2 mph24.5 kmh 30.22 in1023.4 mb 0.00 in0.0 mm 0.00 in0.0 mm 0.00 in0.0 mm
12:08 AM 54.7°F12.6°C 41.9°F5.5°C 62% 9.2 mph W14.8 kmh W 12.1 mph19.5 kmh 30.22 in1023.4 mb 0.00 in0.0 mm 0.00 in0.0 mm 0.00 in0.0 mm
12:03 AM 54.3°F12.4°C 43.2°F6.2°C 66% 13.6 mph W21.9 kmh W 15.2 mph24.5 kmh 30.23 in1023.7 mb 0.00 in0.0 mm 0.00 in0.0 mm 0.00 in0.0 mm